sensor_id;sensor_type;location;lat;lon;timestamp;P1;durP1;ratioP1;P2;durP2;ratioP2
5133;SDS011;2585;48.696;10.066;2022-10-16T00:01:35;4.47;;;2.40;;
5133;SDS011;2585;48.696;10.066;2022-10-16T00:04:02;4.07;;;2.63;;
5133;SDS011;2585;48.696;10.066;2022-10-16T00:06:30;6.20;;;2.63;;
5133;SDS011;2585;48.696;10.066;2022-10-16T00:08:57;9.37;;;4.10;;
5133;SDS011;2585;48.696;10.066;2022-10-16T00:11:26;8.90;;;5.70;;
5133;SDS011;2585;48.696;10.066;2022-10-16T00:14:03;4.90;;;3.43;;
5133;SDS011;2585;48.696;10.066;2022-10-16T00:16:33;4.73;;;3.03;;
5133;SDS011;2585;48.696;10.066;2022-10-16T00:19:00;6.77;;;3.30;;
5133;SDS011;2585;48.696;10.066;2022-10-16T00:21:27;5.23;;;3.23;;
5133;SDS011;2585;48.696;10.066;2022-10-16T00:23:57;11.40;;;3.27;;
5133;SDS011;2585;48.696;10.066;2022-10-16T00:26:30;4.87;;;2.80;;
5133;SDS011;2585;48.696;10.066;2022-10-16T00:28:58;11.43;;;5.53;;
5133;SDS011;2585;48.696;10.066;2022-10-16T00:31:25;6.13;;;3.00;;
5133;SDS011;2585;48.696;10.066;2022-10-16T00:33:53;8.80;;;3.33;;
5133;SDS011;2585;48.696;10.066;2022-10-16T00:36:20;10.30;;;3.80;;
5133;SDS011;2585;48.696;10.066;2022-10-16T00:38:52;7.10;;;4.00;;
5133;SDS011;2585;48.696;10.066;2022-10-16T00:41:21;5.10;;;3.70;;
5133;SDS011;2585;48.696;10.066;2022-10-16T00:43:51;5.00;;;3.30;;
5133;SDS011;2585;48.696;10.066;2022-10-16T00:46:25;6.10;;;3.43;;
5133;SDS011;2585;48.696;10.066;2022-10-16T00:51:37;3.83;;;3.23;;
5133;SDS011;2585;48.696;10.066;2022-10-16T00:54:28;5.30;;;3.53;;
5133;SDS011;2585;48.696;10.066;2022-10-16T00:56:58;8.50;;;3.30;;
5133;SDS011;2585;48.696;10.066;2022-10-16T00:59:32;18.47;;;3.60;;
5133;SDS011;2585;48.696;10.066;2022-10-16T01:02:03;4.27;;;3.73;;
5133;SDS011;2585;48.696;10.066;2022-10-16T01:04:33;7.67;;;3.83;;
5133;SDS011;2585;48.696;10.066;2022-10-16T01:12:40;7.37;;;3.63;;
5133;SDS011;2585;48.696;10.066;2022-10-16T01:15:26;4.23;;;3.37;;
5133;SDS011;2585;48.696;10.066;2022-10-16T01:28:48;16.87;;;3.23;;
5133;SDS011;2585;48.696;10.066;2022-10-16T01:31:22;9.30;;;3.07;;
5133;SDS011;2585;48.696;10.066;2022-10-16T01:33:57;3.57;;;2.70;;
5133;SDS011;2585;48.696;10.066;2022-10-16T01:36:31;5.30;;;2.67;;
5133;SDS011;2585;48.696;10.066;2022-10-16T01:39:06;4.30;;;2.37;;
5133;SDS011;2585;48.696;10.066;2022-10-16T01:41:38;6.13;;;2.60;;
5133;SDS011;2585;48.696;10.066;2022-10-16T01:44:22;11.20;;;3.57;;
5133;SDS011;2585;48.696;10.066;2022-10-16T01:46:54;7.13;;;3.30;;
5133;SDS011;2585;48.696;10.066;2022-10-16T01:49:23;14.17;;;3.50;;
5133;SDS011;2585;48.696;10.066;2022-10-16T01:51:54;8.43;;;4.37;;
5133;SDS011;2585;48.696;10.066;2022-10-16T01:54:30;13.70;;;3.73;;
5133;SDS011;2585;48.696;10.066;2022-10-16T01:56:59;5.37;;;4.00;;
5133;SDS011;2585;48.696;10.066;2022-10-16T01:59:28;4.27;;;3.87;;
5133;SDS011;2585;48.696;10.066;2022-10-16T02:01:59;4.00;;;3.47;;
5133;SDS011;2585;48.696;10.066;2022-10-16T02:04:34;4.37;;;3.63;;
5133;SDS011;2585;48.696;10.066;2022-10-16T02:07:05;11.63;;;3.40;;
5133;SDS011;2585;48.696;10.066;2022-10-16T02:09:33;10.70;;;3.43;;
5133;SDS011;2585;48.696;10.066;2022-10-16T02:12:03;4.03;;;3.00;;
5133;SDS011;2585;48.696;10.066;2022-10-16T02:14:38;4.17;;;3.40;;
5133;SDS011;2585;48.696;10.066;2022-10-16T02:17:13;19.07;;;3.20;;
5133;SDS011;2585;48.696;10.066;2022-10-16T02:19:41;2.87;;;2.60;;
5133;SDS011;2585;48.696;10.066;2022-10-16T02:22:10;10.60;;;3.30;;
5133;SDS011;2585;48.696;10.066;2022-10-16T02:24:59;2.80;;;2.53;;
5133;SDS011;2585;48.696;10.066;2022-10-16T02:30:14;4.07;;;2.33;;
5133;SDS011;2585;48.696;10.066;2022-10-16T02:32:53;2.20;;;2.00;;
5133;SDS011;2585;48.696;10.066;2022-10-16T02:35:21;3.87;;;2.23;;
5133;SDS011;2585;48.696;10.066;2022-10-16T02:37:49;3.30;;;2.00;;
5133;SDS011;2585;48.696;10.066;2022-10-16T02:40:18;9.50;;;2.80;;
5133;SDS011;2585;48.696;10.066;2022-10-16T02:42:51;6.53;;;2.60;;
5133;SDS011;2585;48.696;10.066;2022-10-16T02:45:20;3.47;;;2.57;;
5133;SDS011;2585;48.696;10.066;2022-10-16T02:47:47;2.83;;;2.63;;
5133;SDS011;2585;48.696;10.066;2022-10-16T02:50:15;4.97;;;2.13;;
5133;SDS011;2585;48.696;10.066;2022-10-16T02:52:42;3.27;;;2.70;;
5133;SDS011;2585;48.696;10.066;2022-10-16T02:55:09;2.30;;;2.10;;
5133;SDS011;2585;48.696;10.066;2022-10-16T02:57:36;3.03;;;2.00;;
5133;SDS011;2585;48.696;10.066;2022-10-16T03:00:04;3.10;;;2.37;;
5133;SDS011;2585;48.696;10.066;2022-10-16T03:02:31;2.70;;;2.43;;
5133;SDS011;2585;48.696;10.066;2022-10-16T03:04:58;2.50;;;2.30;;
5133;SDS011;2585;48.696;10.066;2022-10-16T03:07:24;2.70;;;2.00;;
5133;SDS011;2585;48.696;10.066;2022-10-16T03:09:52;4.83;;;2.60;;
5133;SDS011;2585;48.696;10.066;2022-10-16T03:12:18;2.13;;;1.93;;
5133;SDS011;2585;48.696;10.066;2022-10-16T03:14:45;2.80;;;2.20;;
5133;SDS011;2585;48.696;10.066;2022-10-16T03:17:12;2.37;;;2.17;;
5133;SDS011;2585;48.696;10.066;2022-10-16T03:19:39;4.87;;;2.50;;
5133;SDS011;2585;48.696;10.066;2022-10-16T03:22:06;2.10;;;1.97;;
5133;SDS011;2585;48.696;10.066;2022-10-16T03:24:32;7.07;;;2.40;;
5133;SDS011;2585;48.696;10.066;2022-10-16T03:26:59;5.30;;;3.30;;
5133;SDS011;2585;48.696;10.066;2022-10-16T03:29:26;3.10;;;2.70;;
5133;SDS011;2585;48.696;10.066;2022-10-16T03:31:55;4.50;;;2.40;;
5133;SDS011;2585;48.696;10.066;2022-10-16T03:34:22;3.53;;;2.40;;
5133;SDS011;2585;48.696;10.066;2022-10-16T03:36:49;5.60;;;2.80;;
5133;SDS011;2585;48.696;10.066;2022-10-16T03:39:16;3.10;;;2.80;;
5133;SDS011;2585;48.696;10.066;2022-10-16T03:41:43;3.00;;;2.67;;
5133;SDS011;2585;48.696;10.066;2022-10-16T03:44:09;4.53;;;3.00;;
5133;SDS011;2585;48.696;10.066;2022-10-16T03:46:36;3.67;;;3.37;;
5133;SDS011;2585;48.696;10.066;2022-10-16T03:49:03;10.17;;;3.50;;
5133;SDS011;2585;48.696;10.066;2022-10-16T03:51:34;9.30;;;2.97;;
5133;SDS011;2585;48.696;10.066;2022-10-16T03:54:01;3.97;;;3.23;;
5133;SDS011;2585;48.696;10.066;2022-10-16T03:56:28;4.33;;;3.50;;
5133;SDS011;2585;48.696;10.066;2022-10-16T03:58:55;4.77;;;3.03;;
5133;SDS011;2585;48.696;10.066;2022-10-16T04:01:21;3.33;;;2.60;;
5133;SDS011;2585;48.696;10.066;2022-10-16T04:03:48;3.03;;;2.73;;
5133;SDS011;2585;48.696;10.066;2022-10-16T04:06:15;8.00;;;3.00;;
5133;SDS011;2585;48.696;10.066;2022-10-16T04:08:42;3.40;;;2.70;;
5133;SDS011;2585;48.696;10.066;2022-10-16T04:11:09;4.50;;;3.00;;
5133;SDS011;2585;48.696;10.066;2022-10-16T04:13:36;3.40;;;3.03;;
5133;SDS011;2585;48.696;10.066;2022-10-16T04:16:03;5.73;;;3.63;;
5133;SDS011;2585;48.696;10.066;2022-10-16T04:18:30;5.47;;;3.33;;
5133;SDS011;2585;48.696;10.066;2022-10-16T04:21:01;3.60;;;2.93;;
5133;SDS011;2585;48.696;10.066;2022-10-16T04:23:29;4.33;;;3.30;;
5133;SDS011;2585;48.696;10.066;2022-10-16T04:25:56;3.60;;;3.00;;
5133;SDS011;2585;48.696;10.066;2022-10-16T04:28:23;2.80;;;2.30;;
5133;SDS011;2585;48.696;10.066;2022-10-16T04:30:50;3.17;;;2.87;;
5133;SDS011;2585;48.696;10.066;2022-10-16T04:33:17;4.30;;;2.50;;
5133;SDS011;2585;48.696;10.066;2022-10-16T04:35:44;2.50;;;2.30;;
5133;SDS011;2585;48.696;10.066;2022-10-16T04:38:10;3.10;;;2.70;;
5133;SDS011;2585;48.696;10.066;2022-10-16T04:40:37;4.33;;;2.27;;
5133;SDS011;2585;48.696;10.066;2022-10-16T04:43:04;3.47;;;2.80;;
5133;SDS011;2585;48.696;10.066;2022-10-16T04:45:31;3.10;;;2.80;;
5133;SDS011;2585;48.696;10.066;2022-10-16T04:47:59;4.77;;;3.13;;
5133;SDS011;2585;48.696;10.066;2022-10-16T04:50:26;3.67;;;2.83;;
5133;SDS011;2585;48.696;10.066;2022-10-16T04:52:53;3.27;;;2.60;;
5133;SDS011;2585;48.696;10.066;2022-10-16T04:55:19;3.13;;;2.90;;
5133;SDS011;2585;48.696;10.066;2022-10-16T04:57:47;5.43;;;2.63;;
5133;SDS011;2585;48.696;10.066;2022-10-16T05:00:13;4.23;;;2.70;;
5133;SDS011;2585;48.696;10.066;2022-10-16T05:02:40;8.17;;;2.73;;
5133;SDS011;2585;48.696;10.066;2022-10-16T05:05:07;11.87;;;3.73;;
5133;SDS011;2585;48.696;10.066;2022-10-16T05:07:34;18.80;;;4.10;;
5133;SDS011;2585;48.696;10.066;2022-10-16T05:10:01;17.93;;;4.00;;
5133;SDS011;2585;48.696;10.066;2022-10-16T05:12:28;10.33;;;4.10;;
5133;SDS011;2585;48.696;10.066;2022-10-16T05:14:55;3.20;;;2.80;;
5133;SDS011;2585;48.696;10.066;2022-10-16T05:17:25;4.60;;;3.60;;
5133;SDS011;2585;48.696;10.066;2022-10-16T05:19:53;3.90;;;3.50;;
5133;SDS011;2585;48.696;10.066;2022-10-16T05:22:20;5.80;;;4.17;;
5133;SDS011;2585;48.696;10.066;2022-10-16T05:24:47;13.13;;;4.03;;
5133;SDS011;2585;48.696;10.066;2022-10-16T05:27:13;5.00;;;4.23;;
5133;SDS011;2585;48.696;10.066;2022-10-16T05:29:45;6.57;;;3.87;;
5133;SDS011;2585;48.696;10.066;2022-10-16T05:32:13;8.73;;;4.33;;
5133;SDS011;2585;48.696;10.066;2022-10-16T05:34:41;9.33;;;3.60;;
5133;SDS011;2585;48.696;10.066;2022-10-16T05:37:07;6.93;;;4.13;;
5133;SDS011;2585;48.696;10.066;2022-10-16T05:39:35;5.17;;;4.33;;
5133;SDS011;2585;48.696;10.066;2022-10-16T05:42:03;4.47;;;4.00;;
5133;SDS011;2585;48.696;10.066;2022-10-16T05:44:31;18.40;;;5.17;;
5133;SDS011;2585;48.696;10.066;2022-10-16T05:47:02;5.80;;;4.43;;
5133;SDS011;2585;48.696;10.066;2022-10-16T05:49:29;5.80;;;3.90;;
5133;SDS011;2585;48.696;10.066;2022-10-16T05:51:56;10.17;;;4.60;;
5133;SDS011;2585;48.696;10.066;2022-10-16T05:54:22;6.63;;;4.97;;
5133;SDS011;2585;48.696;10.066;2022-10-16T05:56:49;5.07;;;4.57;;
5133;SDS011;2585;48.696;10.066;2022-10-16T05:59:16;13.23;;;5.60;;
5133;SDS011;2585;48.696;10.066;2022-10-16T06:01:43;17.50;;;5.23;;
5133;SDS011;2585;48.696;10.066;2022-10-16T06:04:09;7.00;;;5.23;;
5133;SDS011;2585;48.696;10.066;2022-10-16T06:06:41;9.23;;;5.80;;
5133;SDS011;2585;48.696;10.066;2022-10-16T06:09:08;12.53;;;5.97;;
5133;SDS011;2585;48.696;10.066;2022-10-16T06:11:35;7.77;;;5.33;;
5133;SDS011;2585;48.696;10.066;2022-10-16T06:14:02;6.93;;;5.67;;
5133;SDS011;2585;48.696;10.066;2022-10-16T06:16:36;7.23;;;5.30;;
5133;SDS011;2585;48.696;10.066;2022-10-16T06:19:03;6.97;;;5.20;;
5133;SDS011;2585;48.696;10.066;2022-10-16T06:21:34;7.43;;;5.07;;
5133;SDS011;2585;48.696;10.066;2022-10-16T06:24:01;6.57;;;4.47;;
5133;SDS011;2585;48.696;10.066;2022-10-16T06:26:29;7.07;;;5.30;;
5133;SDS011;2585;48.696;10.066;2022-10-16T06:28:57;6.93;;;5.20;;
5133;SDS011;2585;48.696;10.066;2022-10-16T06:31:25;7.00;;;5.33;;
5133;SDS011;2585;48.696;10.066;2022-10-16T06:33:55;7.00;;;5.73;;
5133;SDS011;2585;48.696;10.066;2022-10-16T06:36:23;6.70;;;5.60;;
5133;SDS011;2585;48.696;10.066;2022-10-16T06:38:50;7.30;;;5.70;;
5133;SDS011;2585;48.696;10.066;2022-10-16T06:41:19;7.47;;;5.77;;
5133;SDS011;2585;48.696;10.066;2022-10-16T06:43:47;5.40;;;4.87;;
5133;SDS011;2585;48.696;10.066;2022-10-16T06:46:15;7.10;;;5.63;;
5133;SDS011;2585;48.696;10.066;2022-10-16T06:48:44;5.20;;;4.80;;
5133;SDS011;2585;48.696;10.066;2022-10-16T06:51:14;8.47;;;6.07;;
5133;SDS011;2585;48.696;10.066;2022-10-16T06:53:50;5.43;;;4.67;;
5133;SDS011;2585;48.696;10.066;2022-10-16T06:56:30;6.27;;;5.00;;
5133;SDS011;2585;48.696;10.066;2022-10-16T06:58:58;6.63;;;5.57;;
5133;SDS011;2585;48.696;10.066;2022-10-16T07:01:25;5.00;;;4.27;;
5133;SDS011;2585;48.696;10.066;2022-10-16T07:03:53;8.37;;;4.80;;
5133;SDS011;2585;48.696;10.066;2022-10-16T07:06:20;6.27;;;5.20;;
5133;SDS011;2585;48.696;10.066;2022-10-16T07:08:49;6.37;;;5.67;;
5133;SDS011;2585;48.696;10.066;2022-10-16T07:11:17;8.80;;;6.60;;
5133;SDS011;2585;48.696;10.066;2022-10-16T07:13:45;7.43;;;6.33;;
5133;SDS011;2585;48.696;10.066;2022-10-16T07:16:20;5.37;;;4.87;;
5133;SDS011;2585;48.696;10.066;2022-10-16T07:18:49;6.83;;;5.97;;
5133;SDS011;2585;48.696;10.066;2022-10-16T07:21:21;10.77;;;6.73;;
5133;SDS011;2585;48.696;10.066;2022-10-16T07:23:52;6.13;;;5.53;;
5133;SDS011;2585;48.696;10.066;2022-10-16T07:26:20;9.13;;;6.43;;
5133;SDS011;2585;48.696;10.066;2022-10-16T07:28:47;5.80;;;5.20;;
5133;SDS011;2585;48.696;10.066;2022-10-16T07:31:15;5.60;;;4.70;;
5133;SDS011;2585;48.696;10.066;2022-10-16T07:33:44;5.90;;;5.23;;
5133;SDS011;2585;48.696;10.066;2022-10-16T07:36:12;5.20;;;4.70;;
5133;SDS011;2585;48.696;10.066;2022-10-16T07:38:41;6.43;;;5.30;;
5133;SDS011;2585;48.696;10.066;2022-10-16T07:41:09;8.70;;;6.47;;
5133;SDS011;2585;48.696;10.066;2022-10-16T07:43:38;7.00;;;6.30;;
5133;SDS011;2585;48.696;10.066;2022-10-16T07:46:05;7.30;;;6.60;;
5133;SDS011;2585;48.696;10.066;2022-10-16T07:48:32;9.47;;;7.60;;
5133;SDS011;2585;48.696;10.066;2022-10-16T07:51:01;10.03;;;6.20;;
5133;SDS011;2585;48.696;10.066;2022-10-16T07:53:30;7.83;;;6.67;;
5133;SDS011;2585;48.696;10.066;2022-10-16T07:56:00;8.67;;;6.90;;
5133;SDS011;2585;48.696;10.066;2022-10-16T07:58:28;11.10;;;8.13;;
5133;SDS011;2585;48.696;10.066;2022-10-16T08:00:56;11.67;;;7.80;;
5133;SDS011;2585;48.696;10.066;2022-10-16T08:03:23;8.23;;;7.30;;
5133;SDS011;2585;48.696;10.066;2022-10-16T08:05:51;9.43;;;7.30;;
5133;SDS011;2585;48.696;10.066;2022-10-16T08:08:18;9.13;;;7.60;;
5133;SDS011;2585;48.696;10.066;2022-10-16T08:10:45;8.20;;;6.23;;
5133;SDS011;2585;48.696;10.066;2022-10-16T08:13:12;10.53;;;7.50;;
5133;SDS011;2585;48.696;10.066;2022-10-16T08:15:42;14.43;;;6.70;;
5133;SDS011;2585;48.696;10.066;2022-10-16T08:18:09;8.83;;;7.03;;
5133;SDS011;2585;48.696;10.066;2022-10-16T08:20:38;9.83;;;6.77;;
5133;SDS011;2585;48.696;10.066;2022-10-16T08:23:05;9.77;;;6.57;;
5133;SDS011;2585;48.696;10.066;2022-10-16T08:25:36;6.47;;;5.70;;
5133;SDS011;2585;48.696;10.066;2022-10-16T08:28:04;8.40;;;6.63;;
5133;SDS011;2585;48.696;10.066;2022-10-16T08:30:34;10.53;;;6.40;;
5133;SDS011;2585;48.696;10.066;2022-10-16T08:33:01;7.60;;;5.50;;
5133;SDS011;2585;48.696;10.066;2022-10-16T08:35:28;9.13;;;6.20;;
5133;SDS011;2585;48.696;10.066;2022-10-16T08:37:56;6.93;;;6.13;;
5133;SDS011;2585;48.696;10.066;2022-10-16T08:40:26;8.60;;;6.03;;
5133;SDS011;2585;48.696;10.066;2022-10-16T08:43:03;7.33;;;5.80;;
5133;SDS011;2585;48.696;10.066;2022-10-16T08:49:13;6.70;;;5.00;;
5133;SDS011;2585;48.696;10.066;2022-10-16T08:51:23;6.03;;;4.80;;
5133;SDS011;2585;48.696;10.066;2022-10-16T08:53:58;6.20;;;4.37;;
5133;SDS011;2585;48.696;10.066;2022-10-16T08:56:28;4.43;;;4.03;;
5133;SDS011;2585;48.696;10.066;2022-10-16T08:58:57;7.23;;;4.10;;
5133;SDS011;2585;48.696;10.066;2022-10-16T09:01:37;4.30;;;3.90;;
5133;SDS011;2585;48.696;10.066;2022-10-16T09:15:27;6.10;;;3.73;;
5133;SDS011;2585;48.696;10.066;2022-10-16T09:23:35;5.80;;;3.67;;
5133;SDS011;2585;48.696;10.066;2022-10-16T09:26:03;4.40;;;2.97;;
5133;SDS011;2585;48.696;10.066;2022-10-16T09:28:35;3.27;;;2.97;;
5133;SDS011;2585;48.696;10.066;2022-10-16T09:31:02;4.00;;;2.80;;
5133;SDS011;2585;48.696;10.066;2022-10-16T09:33:30;5.47;;;2.47;;
5133;SDS011;2585;48.696;10.066;2022-10-16T09:36:03;3.93;;;3.50;;
5133;SDS011;2585;48.696;10.066;2022-10-16T09:38:35;4.33;;;2.70;;
5133;SDS011;2585;48.696;10.066;2022-10-16T09:41:03;5.27;;;2.77;;
5133;SDS011;2585;48.696;10.066;2022-10-16T09:43:53;4.10;;;2.87;;
5133;SDS011;2585;48.696;10.066;2022-10-16T09:46:35;3.33;;;2.57;;
5133;SDS011;2585;48.696;10.066;2022-10-16T09:49:05;3.43;;;2.37;;
5133;SDS011;2585;48.696;10.066;2022-10-16T09:51:45;4.90;;;2.40;;
5133;SDS011;2585;48.696;10.066;2022-10-16T09:54:16;4.47;;;2.90;;
5133;SDS011;2585;48.696;10.066;2022-10-16T09:56:45;4.70;;;2.83;;
5133;SDS011;2585;48.696;10.066;2022-10-16T09:59:16;6.30;;;2.23;;
5133;SDS011;2585;48.696;10.066;2022-10-16T10:01:47;4.33;;;2.40;;
5133;SDS011;2585;48.696;10.066;2022-10-16T10:04:24;3.63;;;2.03;;
5133;SDS011;2585;48.696;10.066;2022-10-16T10:06:55;5.73;;;2.53;;
5133;SDS011;2585;48.696;10.066;2022-10-16T10:11:54;2.80;;;2.13;;
5133;SDS011;2585;48.696;10.066;2022-10-16T10:17:14;9.13;;;2.70;;
5133;SDS011;2585;48.696;10.066;2022-10-16T10:19:47;3.43;;;2.07;;
5133;SDS011;2585;48.696;10.066;2022-10-16T10:22:24;1.73;;;1.57;;
5133;SDS011;2585;48.696;10.066;2022-10-16T10:25:01;3.30;;;2.33;;
5133;SDS011;2585;48.696;10.066;2022-10-16T10:30:32;2.40;;;2.10;;
5133;SDS011;2585;48.696;10.066;2022-10-16T10:43:37;4.57;;;2.00;;
5133;SDS011;2585;48.696;10.066;2022-10-16T10:46:05;4.93;;;1.93;;
5133;SDS011;2585;48.696;10.066;2022-10-16T10:48:52;3.00;;;2.07;;
5133;SDS011;2585;48.696;10.066;2022-10-16T10:51:33;9.57;;;2.03;;
5133;SDS011;2585;48.696;10.066;2022-10-16T10:57:22;5.40;;;2.20;;
5133;SDS011;2585;48.696;10.066;2022-10-16T11:02:58;6.70;;;2.07;;
5133;SDS011;2585;48.696;10.066;2022-10-16T11:05:41;2.00;;;1.77;;
5133;SDS011;2585;48.696;10.066;2022-10-16T11:08:13;4.73;;;1.87;;
5133;SDS011;2585;48.696;10.066;2022-10-16T11:13:31;3.00;;;1.70;;
5133;SDS011;2585;48.696;10.066;2022-10-16T11:16:10;2.03;;;1.83;;
5133;SDS011;2585;48.696;10.066;2022-10-16T11:18:49;2.37;;;1.80;;
5133;SDS011;2585;48.696;10.066;2022-10-16T11:21:19;2.27;;;1.53;;
5133;SDS011;2585;48.696;10.066;2022-10-16T11:23:50;4.33;;;1.60;;
5133;SDS011;2585;48.696;10.066;2022-10-16T11:26:22;3.37;;;1.50;;
5133;SDS011;2585;48.696;10.066;2022-10-16T11:28:56;4.43;;;1.77;;
5133;SDS011;2585;48.696;10.066;2022-10-16T11:31:36;4.73;;;2.20;;
5133;SDS011;2585;48.696;10.066;2022-10-16T11:34:09;3.47;;;2.50;;
5133;SDS011;2585;48.696;10.066;2022-10-16T11:39:27;3.40;;;1.50;;
5133;SDS011;2585;48.696;10.066;2022-10-16T11:50:40;2.23;;;1.57;;
5133;SDS011;2585;48.696;10.066;2022-10-16T11:56:00;1.40;;;1.30;;
5133;SDS011;2585;48.696;10.066;2022-10-16T11:58:28;4.33;;;1.30;;
5133;SDS011;2585;48.696;10.066;2022-10-16T12:01:18;5.57;;;1.53;;
5133;SDS011;2585;48.696;10.066;2022-10-16T12:06:57;4.17;;;1.37;;
5133;SDS011;2585;48.696;10.066;2022-10-16T12:09:32;3.60;;;1.80;;
5133;SDS011;2585;48.696;10.066;2022-10-16T12:12:02;3.43;;;2.20;;
5133;SDS011;2585;48.696;10.066;2022-10-16T12:20:00;3.03;;;1.20;;
5133;SDS011;2585;48.696;10.066;2022-10-16T12:22:48;3.80;;;1.43;;
5133;SDS011;2585;48.696;10.066;2022-10-16T12:25:35;10.00;;;1.83;;
5133;SDS011;2585;48.696;10.066;2022-10-16T12:30:42;3.70;;;1.60;;
5133;SDS011;2585;48.696;10.066;2022-10-16T12:33:22;3.17;;;1.30;;
5133;SDS011;2585;48.696;10.066;2022-10-16T12:35:54;2.80;;;1.23;;
5133;SDS011;2585;48.696;10.066;2022-10-16T12:41:36;2.20;;;1.53;;
5133;SDS011;2585;48.696;10.066;2022-10-16T12:44:20;3.63;;;1.40;;
5133;SDS011;2585;48.696;10.066;2022-10-16T12:46:52;2.50;;;1.23;;
5133;SDS011;2585;48.696;10.066;2022-10-16T12:51:55;3.80;;;1.27;;
5133;SDS011;2585;48.696;10.066;2022-10-16T12:54:26;2.87;;;1.30;;
5133;SDS011;2585;48.696;10.066;2022-10-16T13:00:03;7.97;;;1.20;;
5133;SDS011;2585;48.696;10.066;2022-10-16T13:15:07;2.50;;;1.40;;
5133;SDS011;2585;48.696;10.066;2022-10-16T13:17:55;2.27;;;1.10;;
5133;SDS011;2585;48.696;10.066;2022-10-16T13:24:02;2.43;;;1.27;;
5133;SDS011;2585;48.696;10.066;2022-10-16T13:29:09;1.10;;;1.00;;
5133;SDS011;2585;48.696;10.066;2022-10-16T13:31:37;2.50;;;1.27;;
5133;SDS011;2585;48.696;10.066;2022-10-16T13:34:05;3.37;;;1.83;;
5133;SDS011;2585;48.696;10.066;2022-10-16T13:36:43;3.60;;;1.40;;
5133;SDS011;2585;48.696;10.066;2022-10-16T13:39:14;2.53;;;1.37;;
5133;SDS011;2585;48.696;10.066;2022-10-16T13:41:46;1.23;;;1.13;;
5133;SDS011;2585;48.696;10.066;2022-10-16T13:44:47;1.80;;;1.23;;
5133;SDS011;2585;48.696;10.066;2022-10-16T13:47:17;4.60;;;1.50;;
5133;SDS011;2585;48.696;10.066;2022-10-16T13:50:03;1.97;;;1.57;;
5133;SDS011;2585;48.696;10.066;2022-10-16T13:52:38;4.90;;;1.30;;
5133;SDS011;2585;48.696;10.066;2022-10-16T13:55:23;4.57;;;1.80;;
5133;SDS011;2585;48.696;10.066;2022-10-16T13:57:49;4.20;;;1.13;;
5133;SDS011;2585;48.696;10.066;2022-10-16T14:00:21;1.87;;;1.40;;
5133;SDS011;2585;48.696;10.066;2022-10-16T14:02:55;2.50;;;1.20;;
5133;SDS011;2585;48.696;10.066;2022-10-16T14:05:42;1.67;;;1.30;;
5133;SDS011;2585;48.696;10.066;2022-10-16T14:08:22;1.87;;;1.13;;
5133;SDS011;2585;48.696;10.066;2022-10-16T14:10:51;3.00;;;1.50;;
5133;SDS011;2585;48.696;10.066;2022-10-16T14:13:42;1.50;;;1.40;;
5133;SDS011;2585;48.696;10.066;2022-10-16T14:16:15;4.47;;;1.40;;
5133;SDS011;2585;48.696;10.066;2022-10-16T14:18:46;2.47;;;1.50;;
5133;SDS011;2585;48.696;10.066;2022-10-16T14:21:23;4.00;;;1.70;;
5133;SDS011;2585;48.696;10.066;2022-10-16T14:23:50;1.40;;;1.30;;
5133;SDS011;2585;48.696;10.066;2022-10-16T14:26:19;3.80;;;1.20;;
5133;SDS011;2585;48.696;10.066;2022-10-16T14:28:48;2.90;;;1.30;;
5133;SDS011;2585;48.696;10.066;2022-10-16T14:33:58;1.70;;;1.30;;
5133;SDS011;2585;48.696;10.066;2022-10-16T14:36:26;2.90;;;1.13;;
5133;SDS011;2585;48.696;10.066;2022-10-16T14:41:33;2.70;;;1.30;;
5133;SDS011;2585;48.696;10.066;2022-10-16T14:44:09;1.43;;;1.33;;
5133;SDS011;2585;48.696;10.066;2022-10-16T14:46:38;2.10;;;1.30;;
5133;SDS011;2585;48.696;10.066;2022-10-16T14:51:37;2.00;;;1.57;;
5133;SDS011;2585;48.696;10.066;2022-10-16T14:54:08;2.03;;;1.50;;
5133;SDS011;2585;48.696;10.066;2022-10-16T14:56:43;1.80;;;1.43;;
5133;SDS011;2585;48.696;10.066;2022-10-16T14:59:18;2.50;;;1.67;;
5133;SDS011;2585;48.696;10.066;2022-10-16T15:01:50;1.50;;;1.40;;
5133;SDS011;2585;48.696;10.066;2022-10-16T15:04:17;6.83;;;1.40;;
5133;SDS011;2585;48.696;10.066;2022-10-16T15:06:44;3.90;;;1.60;;
5133;SDS011;2585;48.696;10.066;2022-10-16T15:09:11;2.13;;;1.57;;
5133;SDS011;2585;48.696;10.066;2022-10-16T15:11:38;3.30;;;1.60;;
5133;SDS011;2585;48.696;10.066;2022-10-16T15:14:05;1.77;;;1.50;;
5133;SDS011;2585;48.696;10.066;2022-10-16T15:16:34;8.00;;;2.13;;
5133;SDS011;2585;48.696;10.066;2022-10-16T15:19:01;5.33;;;1.43;;
5133;SDS011;2585;48.696;10.066;2022-10-16T15:21:29;2.17;;;1.47;;
5133;SDS011;2585;48.696;10.066;2022-10-16T15:23:58;8.20;;;1.90;;
5133;SDS011;2585;48.696;10.066;2022-10-16T15:26:26;3.83;;;2.03;;
5133;SDS011;2585;48.696;10.066;2022-10-16T15:28:54;3.23;;;1.70;;
5133;SDS011;2585;48.696;10.066;2022-10-16T15:31:21;2.60;;;1.53;;
5133;SDS011;2585;48.696;10.066;2022-10-16T15:33:49;2.90;;;1.90;;
5133;SDS011;2585;48.696;10.066;2022-10-16T15:36:26;3.10;;;1.33;;
5133;SDS011;2585;48.696;10.066;2022-10-16T15:38:54;2.97;;;1.60;;
5133;SDS011;2585;48.696;10.066;2022-10-16T15:41:21;3.30;;;1.57;;
5133;SDS011;2585;48.696;10.066;2022-10-16T15:43:49;8.57;;;1.27;;
5133;SDS011;2585;48.696;10.066;2022-10-16T15:46:20;2.57;;;1.97;;
5133;SDS011;2585;48.696;10.066;2022-10-16T15:48:48;1.63;;;1.53;;
5133;SDS011;2585;48.696;10.066;2022-10-16T15:51:17;13.77;;;1.77;;
5133;SDS011;2585;48.696;10.066;2022-10-16T15:53:44;4.57;;;1.73;;
5133;SDS011;2585;48.696;10.066;2022-10-16T15:56:12;5.10;;;1.97;;
5133;SDS011;2585;48.696;10.066;2022-10-16T15:58:39;3.00;;;1.30;;
5133;SDS011;2585;48.696;10.066;2022-10-16T16:01:06;1.60;;;1.43;;
5133;SDS011;2585;48.696;10.066;2022-10-16T16:03:36;3.10;;;1.40;;
5133;SDS011;2585;48.696;10.066;2022-10-16T16:06:05;2.70;;;1.57;;
5133;SDS011;2585;48.696;10.066;2022-10-16T16:08:33;2.80;;;1.87;;
5133;SDS011;2585;48.696;10.066;2022-10-16T16:11:10;3.03;;;1.50;;
5133;SDS011;2585;48.696;10.066;2022-10-16T16:13:39;1.97;;;1.40;;
5133;SDS011;2585;48.696;10.066;2022-10-16T16:16:07;2.07;;;1.60;;
5133;SDS011;2585;48.696;10.066;2022-10-16T16:18:38;6.07;;;1.53;;
5133;SDS011;2585;48.696;10.066;2022-10-16T16:21:05;5.17;;;1.47;;
5133;SDS011;2585;48.696;10.066;2022-10-16T16:23:33;5.13;;;2.50;;
5133;SDS011;2585;48.696;10.066;2022-10-16T16:26:04;8.13;;;2.23;;
5133;SDS011;2585;48.696;10.066;2022-10-16T16:28:39;7.67;;;5.73;;
5133;SDS011;2585;48.696;10.066;2022-10-16T16:31:08;24.00;;;14.63;;
5133;SDS011;2585;48.696;10.066;2022-10-16T16:33:35;42.73;;;28.80;;
5133;SDS011;2585;48.696;10.066;2022-10-16T16:36:02;38.93;;;27.67;;
5133;SDS011;2585;48.696;10.066;2022-10-16T16:38:39;47.70;;;32.10;;
5133;SDS011;2585;48.696;10.066;2022-10-16T16:41:13;42.40;;;27.00;;
5133;SDS011;2585;48.696;10.066;2022-10-16T16:43:41;19.07;;;11.37;;
5133;SDS011;2585;48.696;10.066;2022-10-16T16:46:08;18.00;;;6.77;;
5133;SDS011;2585;48.696;10.066;2022-10-16T16:48:36;11.97;;;6.47;;
5133;SDS011;2585;48.696;10.066;2022-10-16T16:51:04;13.77;;;8.47;;
5133;SDS011;2585;48.696;10.066;2022-10-16T16:53:35;10.60;;;8.03;;
5133;SDS011;2585;48.696;10.066;2022-10-16T16:56:03;9.70;;;7.57;;
5133;SDS011;2585;48.696;10.066;2022-10-16T16:58:31;11.20;;;8.23;;
5133;SDS011;2585;48.696;10.066;2022-10-16T17:00:58;6.83;;;5.43;;
5133;SDS011;2585;48.696;10.066;2022-10-16T17:03:45;12.80;;;4.00;;
5133;SDS011;2585;48.696;10.066;2022-10-16T17:06:13;12.03;;;3.23;;
5133;SDS011;2585;48.696;10.066;2022-10-16T17:08:46;6.70;;;3.43;;
5133;SDS011;2585;48.696;10.066;2022-10-16T17:11:16;5.40;;;3.90;;
5133;SDS011;2585;48.696;10.066;2022-10-16T17:13:45;6.40;;;4.07;;
5133;SDS011;2585;48.696;10.066;2022-10-16T17:16:17;8.00;;;3.30;;
5133;SDS011;2585;48.696;10.066;2022-10-16T17:18:44;6.23;;;2.33;;
5133;SDS011;2585;48.696;10.066;2022-10-16T17:21:11;9.80;;;3.10;;
5133;SDS011;2585;48.696;10.066;2022-10-16T17:23:38;7.20;;;2.90;;
5133;SDS011;2585;48.696;10.066;2022-10-16T17:26:06;12.47;;;2.57;;
5133;SDS011;2585;48.696;10.066;2022-10-16T17:28:34;6.60;;;2.50;;
5133;SDS011;2585;48.696;10.066;2022-10-16T17:31:15;3.23;;;2.57;;